sensor_id;sensor_type;location;lat;lon;timestamp;temperature;humidity
11772;DHT22;12556;55.748;13.194;2024-02-23T00:02:18;8.00;99.90
11772;DHT22;12556;55.748;13.194;2024-02-23T00:04:45;8.00;99.90
11772;DHT22;12556;55.748;13.194;2024-02-23T00:07:12;8.00;99.90
11772;DHT22;12556;55.748;13.194;2024-02-23T00:09:40;8.00;99.90
11772;DHT22;12556;55.748;13.194;2024-02-23T00:12:07;8.10;99.90
11772;DHT22;12556;55.748;13.194;2024-02-23T00:14:34;8.10;99.90
11772;DHT22;12556;55.748;13.194;2024-02-23T00:17:02;8.10;99.90
11772;DHT22;12556;55.748;13.194;2024-02-23T00:19:30;8.10;99.90
11772;DHT22;12556;55.748;13.194;2024-02-23T00:21:58;8.10;99.90
11772;DHT22;12556;55.748;13.194;2024-02-23T00:24:25;8.10;99.90
11772;DHT22;12556;55.748;13.194;2024-02-23T00:26:54;8.10;99.90
11772;DHT22;12556;55.748;13.194;2024-02-23T00:29:20;8.10;99.90
11772;DHT22;12556;55.748;13.194;2024-02-23T00:31:48;8.20;99.90
11772;DHT22;12556;55.748;13.194;2024-02-23T00:34:15;8.20;99.90
11772;DHT22;12556;55.748;13.194;2024-02-23T00:36:42;8.20;99.90
11772;DHT22;12556;55.748;13.194;2024-02-23T00:39:10;8.20;99.90
11772;DHT22;12556;55.748;13.194;2024-02-23T00:41:37;8.20;99.90
11772;DHT22;12556;55.748;13.194;2024-02-23T00:44:05;8.20;99.90
11772;DHT22;12556;55.748;13.194;2024-02-23T00:46:32;8.20;99.90
11772;DHT22;12556;55.748;13.194;2024-02-23T00:49:00;8.20;99.90
11772;DHT22;12556;55.748;13.194;2024-02-23T00:51:26;8.20;99.90
11772;DHT22;12556;55.748;13.194;2024-02-23T00:53:53;8.20;99.90
11772;DHT22;12556;55.748;13.194;2024-02-23T00:56:20;8.20;99.90
11772;DHT22;12556;55.748;13.194;2024-02-23T00:58:47;8.30;99.90
11772;DHT22;12556;55.748;13.194;2024-02-23T01:01:15;8.20;99.90
11772;DHT22;12556;55.748;13.194;2024-02-23T01:03:42;8.20;99.90
11772;DHT22;12556;55.748;13.194;2024-02-23T01:06:09;8.20;99.90
11772;DHT22;12556;55.748;13.194;2024-02-23T01:08:36;8.30;99.90
11772;DHT22;12556;55.748;13.194;2024-02-23T01:11:05;8.30;99.90
11772;DHT22;12556;55.748;13.194;2024-02-23T01:13:32;8.30;99.90
11772;DHT22;12556;55.748;13.194;2024-02-23T01:15:59;8.40;99.90
11772;DHT22;12556;55.748;13.194;2024-02-23T01:18:27;8.40;99.90
11772;DHT22;12556;55.748;13.194;2024-02-23T01:20:56;8.50;99.90
11772;DHT22;12556;55.748;13.194;2024-02-23T01:23:23;8.50;99.90
11772;DHT22;12556;55.748;13.194;2024-02-23T01:25:50;8.40;99.90
11772;DHT22;12556;55.748;13.194;2024-02-23T01:28:17;8.50;99.90
11772;DHT22;12556;55.748;13.194;2024-02-23T01:30:43;8.50;99.90
11772;DHT22;12556;55.748;13.194;2024-02-23T01:33:10;8.60;99.90
11772;DHT22;12556;55.748;13.194;2024-02-23T01:35:38;8.60;99.90
11772;DHT22;12556;55.748;13.194;2024-02-23T01:38:05;8.60;99.90
11772;DHT22;12556;55.748;13.194;2024-02-23T01:40:32;8.60;99.90
11772;DHT22;12556;55.748;13.194;2024-02-23T01:43:03;8.60;99.90
11772;DHT22;12556;55.748;13.194;2024-02-23T01:45:31;8.70;99.90
11772;DHT22;12556;55.748;13.194;2024-02-23T01:47:58;8.70;99.90
11772;DHT22;12556;55.748;13.194;2024-02-23T01:50:25;8.70;99.90
11772;DHT22;12556;55.748;13.194;2024-02-23T01:52:57;8.80;99.90
11772;DHT22;12556;55.748;13.194;2024-02-23T01:55:25;8.80;99.90
11772;DHT22;12556;55.748;13.194;2024-02-23T01:57:52;8.90;99.90
11772;DHT22;12556;55.748;13.194;2024-02-23T02:00:20;8.90;99.90
11772;DHT22;12556;55.748;13.194;2024-02-23T02:02:48;9.00;99.90
11772;DHT22;12556;55.748;13.194;2024-02-23T02:05:15;9.10;99.90
11772;DHT22;12556;55.748;13.194;2024-02-23T02:07:42;9.10;99.90
11772;DHT22;12556;55.748;13.194;2024-02-23T02:10:10;9.10;99.90
11772;DHT22;12556;55.748;13.194;2024-02-23T02:12:38;9.10;99.90
11772;DHT22;12556;55.748;13.194;2024-02-23T02:15:06;9.10;99.90
11772;DHT22;12556;55.748;13.194;2024-02-23T02:17:33;9.10;99.90
11772;DHT22;12556;55.748;13.194;2024-02-23T02:20:02;9.20;99.90
11772;DHT22;12556;55.748;13.194;2024-02-23T02:22:32;9.20;99.90
11772;DHT22;12556;55.748;13.194;2024-02-23T02:24:59;9.10;99.90
11772;DHT22;12556;55.748;13.194;2024-02-23T02:27:27;9.20;99.90
11772;DHT22;12556;55.748;13.194;2024-02-23T02:29:54;9.20;99.90
11772;DHT22;12556;55.748;13.194;2024-02-23T02:32:21;9.20;99.90
11772;DHT22;12556;55.748;13.194;2024-02-23T02:34:48;9.20;99.90
11772;DHT22;12556;55.748;13.194;2024-02-23T02:37:15;9.20;99.90
11772;DHT22;12556;55.748;13.194;2024-02-23T02:39:42;9.10;99.90
11772;DHT22;12556;55.748;13.194;2024-02-23T02:42:09;9.10;99.90
11772;DHT22;12556;55.748;13.194;2024-02-23T02:44:37;9.00;99.90
11772;DHT22;12556;55.748;13.194;2024-02-23T02:47:04;8.90;99.90
11772;DHT22;12556;55.748;13.194;2024-02-23T02:49:31;8.90;99.90
11772;DHT22;12556;55.748;13.194;2024-02-23T02:51:58;8.80;99.90
11772;DHT22;12556;55.748;13.194;2024-02-23T02:54:25;8.80;99.90
11772;DHT22;12556;55.748;13.194;2024-02-23T02:56:52;8.70;99.90
11772;DHT22;12556;55.748;13.194;2024-02-23T02:59:19;8.70;99.90
11772;DHT22;12556;55.748;13.194;2024-02-23T03:01:48;8.60;99.90
11772;DHT22;12556;55.748;13.194;2024-02-23T03:04:15;8.60;99.90
11772;DHT22;12556;55.748;13.194;2024-02-23T03:06:42;8.50;99.90
11772;DHT22;12556;55.748;13.194;2024-02-23T03:09:09;8.40;99.90
11772;DHT22;12556;55.748;13.194;2024-02-23T03:11:36;8.50;99.90
11772;DHT22;12556;55.748;13.194;2024-02-23T03:14:03;8.40;99.90
11772;DHT22;12556;55.748;13.194;2024-02-23T03:16:30;8.40;99.90
11772;DHT22;12556;55.748;13.194;2024-02-23T03:18:58;8.40;99.90
11772;DHT22;12556;55.748;13.194;2024-02-23T03:21:25;8.40;99.90
11772;DHT22;12556;55.748;13.194;2024-02-23T03:23:52;8.30;99.90
11772;DHT22;12556;55.748;13.194;2024-02-23T03:26:18;8.30;99.90
11772;DHT22;12556;55.748;13.194;2024-02-23T03:28:45;8.30;99.90
11772;DHT22;12556;55.748;13.194;2024-02-23T03:31:14;8.20;99.90
11772;DHT22;12556;55.748;13.194;2024-02-23T03:33:41;8.10;99.90
11772;DHT22;12556;55.748;13.194;2024-02-23T03:36:09;8.10;99.90
11772;DHT22;12556;55.748;13.194;2024-02-23T03:38:36;8.10;99.90
11772;DHT22;12556;55.748;13.194;2024-02-23T03:41:03;8.10;99.90
11772;DHT22;12556;55.748;13.194;2024-02-23T03:43:32;8.00;99.90
11772;DHT22;12556;55.748;13.194;2024-02-23T03:45:58;8.00;99.90
11772;DHT22;12556;55.748;13.194;2024-02-23T03:48:25;7.80;99.90
11772;DHT22;12556;55.748;13.194;2024-02-23T03:50:51;7.70;99.90
11772;DHT22;12556;55.748;13.194;2024-02-23T03:53:21;7.60;99.90
11772;DHT22;12556;55.748;13.194;2024-02-23T03:55:48;7.50;99.90
11772;DHT22;12556;55.748;13.194;2024-02-23T03:58:15;7.40;99.90
11772;DHT22;12556;55.748;13.194;2024-02-23T04:00:43;7.20;99.90
11772;DHT22;12556;55.748;13.194;2024-02-23T04:03:10;7.10;99.90
11772;DHT22;12556;55.748;13.194;2024-02-23T04:05:37;7.00;99.90
11772;DHT22;12556;55.748;13.194;2024-02-23T04:08:04;6.80;99.90
11772;DHT22;12556;55.748;13.194;2024-02-23T04:10:33;6.70;99.90
11772;DHT22;12556;55.748;13.194;2024-02-23T04:13:00;6.70;99.90
11772;DHT22;12556;55.748;13.194;2024-02-23T04:15:27;6.60;99.90
11772;DHT22;12556;55.748;13.194;2024-02-23T04:17:54;6.50;99.90
11772;DHT22;12556;55.748;13.194;2024-02-23T04:20:21;6.50;99.90
11772;DHT22;12556;55.748;13.194;2024-02-23T04:22:48;6.50;99.90
11772;DHT22;12556;55.748;13.194;2024-02-23T04:25:15;6.40;99.90
11772;DHT22;12556;55.748;13.194;2024-02-23T04:27:43;6.30;99.90
11772;DHT22;12556;55.748;13.194;2024-02-23T04:30:11;6.30;99.90
11772;DHT22;12556;55.748;13.194;2024-02-23T04:32:39;6.30;99.90
11772;DHT22;12556;55.748;13.194;2024-02-23T04:35:07;6.40;99.90
11772;DHT22;12556;55.748;13.194;2024-02-23T04:37:34;6.30;99.90
11772;DHT22;12556;55.748;13.194;2024-02-23T04:40:01;6.30;99.90
11772;DHT22;12556;55.748;13.194;2024-02-23T04:42:29;6.30;99.90
11772;DHT22;12556;55.748;13.194;2024-02-23T04:44:58;6.30;99.90
11772;DHT22;12556;55.748;13.194;2024-02-23T04:47:24;6.30;99.90
11772;DHT22;12556;55.748;13.194;2024-02-23T04:49:51;6.20;99.90
11772;DHT22;12556;55.748;13.194;2024-02-23T04:52:18;6.20;99.90
11772;DHT22;12556;55.748;13.194;2024-02-23T04:54:45;6.20;99.90
11772;DHT22;12556;55.748;13.194;2024-02-23T04:57:12;6.20;99.90
11772;DHT22;12556;55.748;13.194;2024-02-23T04:59:39;6.30;99.90
11772;DHT22;12556;55.748;13.194;2024-02-23T05:02:07;6.20;99.90
11772;DHT22;12556;55.748;13.194;2024-02-23T05:04:34;6.20;99.90
11772;DHT22;12556;55.748;13.194;2024-02-23T05:07:01;6.20;99.90
11772;DHT22;12556;55.748;13.194;2024-02-23T05:09:28;6.20;99.90
11772;DHT22;12556;55.748;13.194;2024-02-23T05:11:55;6.20;99.90
11772;DHT22;12556;55.748;13.194;2024-02-23T05:14:22;6.10;99.90
11772;DHT22;12556;55.748;13.194;2024-02-23T05:16:49;6.10;99.90
11772;DHT22;12556;55.748;13.194;2024-02-23T05:19:17;6.10;99.90
11772;DHT22;12556;55.748;13.194;2024-02-23T05:21:44;6.10;99.90
11772;DHT22;12556;55.748;13.194;2024-02-23T05:24:11;6.00;99.90
11772;DHT22;12556;55.748;13.194;2024-02-23T05:26:38;6.00;99.90
11772;DHT22;12556;55.748;13.194;2024-02-23T05:29:05;6.00;99.90
11772;DHT22;12556;55.748;13.194;2024-02-23T05:31:45;5.90;99.90
11772;DHT22;12556;55.748;13.194;2024-02-23T05:34:12;5.90;99.90
11772;DHT22;12556;55.748;13.194;2024-02-23T05:36:40;5.80;99.90
11772;DHT22;12556;55.748;13.194;2024-02-23T05:39:07;5.80;99.90
11772;DHT22;12556;55.748;13.194;2024-02-23T05:41:35;5.80;99.90
11772;DHT22;12556;55.748;13.194;2024-02-23T05:44:03;5.70;99.90
11772;DHT22;12556;55.748;13.194;2024-02-23T05:46:31;5.70;99.90
11772;DHT22;12556;55.748;13.194;2024-02-23T05:48:59;5.60;99.90
11772;DHT22;12556;55.748;13.194;2024-02-23T05:51:27;5.60;99.90
11772;DHT22;12556;55.748;13.194;2024-02-23T05:53:56;5.60;99.90
11772;DHT22;12556;55.748;13.194;2024-02-23T05:56:23;5.60;99.90
11772;DHT22;12556;55.748;13.194;2024-02-23T05:58:50;5.60;99.90
11772;DHT22;12556;55.748;13.194;2024-02-23T06:01:17;5.50;99.90
11772;DHT22;12556;55.748;13.194;2024-02-23T06:03:44;5.50;99.90
11772;DHT22;12556;55.748;13.194;2024-02-23T06:06:11;5.50;99.90
11772;DHT22;12556;55.748;13.194;2024-02-23T06:08:38;5.50;99.90
11772;DHT22;12556;55.748;13.194;2024-02-23T06:11:09;5.60;99.90
11772;DHT22;12556;55.748;13.194;2024-02-23T06:13:36;5.50;99.90
11772;DHT22;12556;55.748;13.194;2024-02-23T06:16:04;5.50;99.90
11772;DHT22;12556;55.748;13.194;2024-02-23T06:18:31;5.50;99.90
11772;DHT22;12556;55.748;13.194;2024-02-23T06:20:58;5.50;99.90
11772;DHT22;12556;55.748;13.194;2024-02-23T06:23:25;5.50;99.90
11772;DHT22;12556;55.748;13.194;2024-02-23T06:25:52;5.50;99.90
11772;DHT22;12556;55.748;13.194;2024-02-23T06:28:20;5.50;99.90
11772;DHT22;12556;55.748;13.194;2024-02-23T06:30:47;5.50;99.90
11772;DHT22;12556;55.748;13.194;2024-02-23T06:33:13;5.50;99.90
11772;DHT22;12556;55.748;13.194;2024-02-23T06:35:40;5.40;99.90
11772;DHT22;12556;55.748;13.194;2024-02-23T06:38:07;5.40;99.90
11772;DHT22;12556;55.748;13.194;2024-02-23T06:40:35;5.40;99.90
11772;DHT22;12556;55.748;13.194;2024-02-23T06:43:02;5.50;99.90
11772;DHT22;12556;55.748;13.194;2024-02-23T06:45:30;5.50;99.90
11772;DHT22;12556;55.748;13.194;2024-02-23T06:47:57;5.50;99.90
11772;DHT22;12556;55.748;13.194;2024-02-23T06:50:24;5.50;99.90
11772;DHT22;12556;55.748;13.194;2024-02-23T06:52:51;5.60;99.90
11772;DHT22;12556;55.748;13.194;2024-02-23T06:55:18;5.60;99.90
11772;DHT22;12556;55.748;13.194;2024-02-23T06:57:45;5.70;99.90
11772;DHT22;12556;55.748;13.194;2024-02-23T07:00:13;5.60;99.90
11772;DHT22;12556;55.748;13.194;2024-02-23T07:02:41;5.70;99.90
11772;DHT22;12556;55.748;13.194;2024-02-23T07:05:08;5.70;99.90
11772;DHT22;12556;55.748;13.194;2024-02-23T07:07:36;5.80;99.90
11772;DHT22;12556;55.748;13.194;2024-02-23T07:10:03;5.80;99.90
11772;DHT22;12556;55.748;13.194;2024-02-23T07:12:30;5.80;99.90
11772;DHT22;12556;55.748;13.194;2024-02-23T07:14:57;6.00;99.90
11772;DHT22;12556;55.748;13.194;2024-02-23T07:17:24;5.70;99.90
11772;DHT22;12556;55.748;13.194;2024-02-23T07:19:52;5.80;99.90
11772;DHT22;12556;55.748;13.194;2024-02-23T07:22:19;5.80;99.90
11772;DHT22;12556;55.748;13.194;2024-02-23T07:24:46;5.80;99.90
11772;DHT22;12556;55.748;13.194;2024-02-23T07:27:14;5.80;99.90
11772;DHT22;12556;55.748;13.194;2024-02-23T07:29:41;5.80;99.90
11772;DHT22;12556;55.748;13.194;2024-02-23T07:32:08;5.80;99.90
11772;DHT22;12556;55.748;13.194;2024-02-23T07:34:35;5.90;99.90
11772;DHT22;12556;55.748;13.194;2024-02-23T07:37:04;5.90;99.90
11772;DHT22;12556;55.748;13.194;2024-02-23T07:39:31;5.90;99.90
11772;DHT22;12556;55.748;13.194;2024-02-23T07:41:57;5.90;99.90
11772;DHT22;12556;55.748;13.194;2024-02-23T07:44:24;5.90;99.90
11772;DHT22;12556;55.748;13.194;2024-02-23T07:46:51;5.90;99.90
11772;DHT22;12556;55.748;13.194;2024-02-23T07:49:20;6.20;99.90
11772;DHT22;12556;55.748;13.194;2024-02-23T07:51:47;5.90;99.90
11772;DHT22;12556;55.748;13.194;2024-02-23T07:54:16;5.90;99.90
11772;DHT22;12556;55.748;13.194;2024-02-23T07:56:43;5.90;99.90
11772;DHT22;12556;55.748;13.194;2024-02-23T07:59:10;5.90;99.90
11772;DHT22;12556;55.748;13.194;2024-02-23T08:01:37;6.00;99.90
11772;DHT22;12556;55.748;13.194;2024-02-23T08:04:05;5.90;99.90
11772;DHT22;12556;55.748;13.194;2024-02-23T08:06:32;6.00;99.90
11772;DHT22;12556;55.748;13.194;2024-02-23T08:08:59;6.10;99.90
11772;DHT22;12556;55.748;13.194;2024-02-23T08:11:27;6.10;99.90
11772;DHT22;12556;55.748;13.194;2024-02-23T08:13:54;6.20;99.90
11772;DHT22;12556;55.748;13.194;2024-02-23T08:16:21;6.20;99.90
11772;DHT22;12556;55.748;13.194;2024-02-23T08:18:48;6.30;99.90
11772;DHT22;12556;55.748;13.194;2024-02-23T08:21:15;6.30;99.90
11772;DHT22;12556;55.748;13.194;2024-02-23T08:23:41;6.40;99.90
11772;DHT22;12556;55.748;13.194;2024-02-23T08:26:08;6.40;99.90
11772;DHT22;12556;55.748;13.194;2024-02-23T08:28:38;6.50;99.90
11772;DHT22;12556;55.748;13.194;2024-02-23T08:31:03;6.50;99.90
11772;DHT22;12556;55.748;13.194;2024-02-23T08:33:30;6.50;99.90
11772;DHT22;12556;55.748;13.194;2024-02-23T08:35:57;6.50;99.90
11772;DHT22;12556;55.748;13.194;2024-02-23T08:38:24;6.60;99.90
11772;DHT22;12556;55.748;13.194;2024-02-23T08:40:51;6.60;99.90
11772;DHT22;12556;55.748;13.194;2024-02-23T08:43:18;6.60;99.90
11772;DHT22;12556;55.748;13.194;2024-02-23T08:45:46;6.70;99.90
11772;DHT22;12556;55.748;13.194;2024-02-23T08:48:14;6.70;99.90
11772;DHT22;12556;55.748;13.194;2024-02-23T08:50:41;6.60;99.90
11772;DHT22;12556;55.748;13.194;2024-02-23T08:53:08;6.70;99.90
11772;DHT22;12556;55.748;13.194;2024-02-23T08:55:35;6.70;99.90
11772;DHT22;12556;55.748;13.194;2024-02-23T08:58:02;6.70;99.90
11772;DHT22;12556;55.748;13.194;2024-02-23T09:00:31;6.70;99.90
11772;DHT22;12556;55.748;13.194;2024-02-23T09:02:59;6.70;99.90
11772;DHT22;12556;55.748;13.194;2024-02-23T09:05:26;6.70;99.90
11772;DHT22;12556;55.748;13.194;2024-02-23T09:07:53;6.70;99.90
11772;DHT22;12556;55.748;13.194;2024-02-23T09:10:20;6.70;99.90
11772;DHT22;12556;55.748;13.194;2024-02-23T09:12:47;6.80;99.90
11772;DHT22;12556;55.748;13.194;2024-02-23T09:15:14;6.80;99.90
11772;DHT22;12556;55.748;13.194;2024-02-23T09:17:41;6.80;99.90
11772;DHT22;12556;55.748;13.194;2024-02-23T09:20:11;6.90;99.90
11772;DHT22;12556;55.748;13.194;2024-02-23T09:22:38;6.80;99.90
11772;DHT22;12556;55.748;13.194;2024-02-23T09:25:06;6.90;99.90
11772;DHT22;12556;55.748;13.194;2024-02-23T09:27:34;6.80;99.90
11772;DHT22;12556;55.748;13.194;2024-02-23T09:30:02;6.80;99.90
11772;DHT22;12556;55.748;13.194;2024-02-23T09:32:29;6.90;99.90
11772;DHT22;12556;55.748;13.194;2024-02-23T09:34:56;6.90;99.90
11772;DHT22;12556;55.748;13.194;2024-02-23T09:37:25;6.90;99.90
11772;DHT22;12556;55.748;13.194;2024-02-23T09:39:52;7.50;99.90
11772;DHT22;12556;55.748;13.194;2024-02-23T09:42:20;6.90;99.90
11772;DHT22;12556;55.748;13.194;2024-02-23T09:44:55;7.00;99.90
11772;DHT22;12556;55.748;13.194;2024-02-23T09:47:24;7.00;99.90
11772;DHT22;12556;55.748;13.194;2024-02-23T09:49:53;7.00;99.90
11772;DHT22;12556;55.748;13.194;2024-02-23T09:52:20;7.10;99.90
11772;DHT22;12556;55.748;13.194;2024-02-23T09:54:49;7.10;99.90
11772;DHT22;12556;55.748;13.194;2024-02-23T09:57:16;7.10;99.90
11772;DHT22;12556;55.748;13.194;2024-02-23T09:59:44;7.10;99.90
11772;DHT22;12556;55.748;13.194;2024-02-23T10:02:15;7.20;99.90
11772;DHT22;12556;55.748;13.194;2024-02-23T10:04:43;7.20;99.90
11772;DHT22;12556;55.748;13.194;2024-02-23T10:07:10;7.20;99.90
11772;DHT22;12556;55.748;13.194;2024-02-23T10:09:40;7.30;99.90
11772;DHT22;12556;55.748;13.194;2024-02-23T10:12:09;7.40;99.90
11772;DHT22;12556;55.748;13.194;2024-02-23T10:14:36;7.40;99.90
11772;DHT22;12556;55.748;13.194;2024-02-23T10:17:03;7.50;99.90
11772;DHT22;12556;55.748;13.194;2024-02-23T10:19:34;7.50;99.90
11772;DHT22;12556;55.748;13.194;2024-02-23T10:22:01;7.50;99.90
11772;DHT22;12556;55.748;13.194;2024-02-23T10:24:27;7.50;99.90
11772;DHT22;12556;55.748;13.194;2024-02-23T10:26:54;7.50;99.90
11772;DHT22;12556;55.748;13.194;2024-02-23T10:29:23;7.60;99.90
11772;DHT22;12556;55.748;13.194;2024-02-23T10:31:51;7.70;99.90
11772;DHT22;12556;55.748;13.194;2024-02-23T10:34:19;7.60;99.90
11772;DHT22;12556;55.748;13.194;2024-02-23T10:36:46;7.60;99.90
11772;DHT22;12556;55.748;13.194;2024-02-23T10:39:17;7.50;99.90
11772;DHT22;12556;55.748;13.194;2024-02-23T10:41:48;7.40;99.90
11772;DHT22;12556;55.748;13.194;2024-02-23T10:44:18;7.30;99.90
11772;DHT22;12556;55.748;13.194;2024-02-23T10:46:48;7.20;99.90
11772;DHT22;12556;55.748;13.194;2024-02-23T10:49:17;7.20;99.90
11772;DHT22;12556;55.748;13.194;2024-02-23T10:51:47;7.20;99.90
11772;DHT22;12556;55.748;13.194;2024-02-23T10:54:16;7.20;99.90
11772;DHT22;12556;55.748;13.194;2024-02-23T10:56:47;7.20;99.90
11772;DHT22;12556;55.748;13.194;2024-02-23T10:59:14;7.30;99.90
11772;DHT22;12556;55.748;13.194;2024-02-23T11:01:44;7.20;99.90
11772;DHT22;12556;55.748;13.194;2024-02-23T11:04:13;7.30;99.90
11772;DHT22;12556;55.748;13.194;2024-02-23T11:06:40;7.30;99.90
11772;DHT22;12556;55.748;13.194;2024-02-23T11:09:08;7.40;99.90
11772;DHT22;12556;55.748;13.194;2024-02-23T11:11:38;7.40;99.90
11772;DHT22;12556;55.748;13.194;2024-02-23T11:14:08;7.40;99.90
11772;DHT22;12556;55.748;13.194;2024-02-23T11:16:39;7.40;99.90
11772;DHT22;12556;55.748;13.194;2024-02-23T11:19:08;7.40;99.90
11772;DHT22;12556;55.748;13.194;2024-02-23T11:21:38;7.60;99.90
11772;DHT22;12556;55.748;13.194;2024-02-23T11:24:06;7.60;99.90
11772;DHT22;12556;55.748;13.194;2024-02-23T11:26:33;7.70;99.90
11772;DHT22;12556;55.748;13.194;2024-02-23T11:29:10;7.60;99.90
11772;DHT22;12556;55.748;13.194;2024-02-23T11:31:44;7.60;99.90
11772;DHT22;12556;55.748;13.194;2024-02-23T11:34:12;7.60;99.90
11772;DHT22;12556;55.748;13.194;2024-02-23T11:36:40;7.60;99.90
11772;DHT22;12556;55.748;13.194;2024-02-23T11:39:10;7.60;99.90
11772;DHT22;12556;55.748;13.194;2024-02-23T11:41:38;7.50;99.90
11772;DHT22;12556;55.748;13.194;2024-02-23T11:44:05;7.50;99.90
11772;DHT22;12556;55.748;13.194;2024-02-23T11:46:32;7.40;99.90
11772;DHT22;12556;55.748;13.194;2024-02-23T11:48:59;7.40;99.90
11772;DHT22;12556;55.748;13.194;2024-02-23T11:51:26;7.30;99.90
11772;DHT22;12556;55.748;13.194;2024-02-23T11:53:57;7.30;99.90
11772;DHT22;12556;55.748;13.194;2024-02-23T11:56:26;7.40;99.90
11772;DHT22;12556;55.748;13.194;2024-02-23T11:58:53;7.30;99.90
11772;DHT22;12556;55.748;13.194;2024-02-23T12:01:20;7.30;99.90
11772;DHT22;12556;55.748;13.194;2024-02-23T12:03:47;7.40;99.90
11772;DHT22;12556;55.748;13.194;2024-02-23T12:06:15;7.30;99.90
11772;DHT22;12556;55.748;13.194;2024-02-23T12:08:42;7.30;99.90
11772;DHT22;12556;55.748;13.194;2024-02-23T12:11:11;7.30;99.90
11772;DHT22;12556;55.748;13.194;2024-02-23T12:13:40;7.30;99.90
11772;DHT22;12556;55.748;13.194;2024-02-23T12:16:07;7.30;99.90
11772;DHT22;12556;55.748;13.194;2024-02-23T12:18:35;7.30;99.90
11772;DHT22;12556;55.748;13.194;2024-02-23T12:21:05;7.20;99.90
11772;DHT22;12556;55.748;13.194;2024-02-23T12:23:41;7.20;99.90
11772;DHT22;12556;55.748;13.194;2024-02-23T12:26:10;7.20;99.90
11772;DHT22;12556;55.748;13.194;2024-02-23T12:28:38;7.20;99.90
11772;DHT22;12556;55.748;13.194;2024-02-23T12:31:06;7.10;99.90
11772;DHT22;12556;55.748;13.194;2024-02-23T12:33:34;7.10;99.90
11772;DHT22;12556;55.748;13.194;2024-02-23T12:36:02;7.00;99.90
11772;DHT22;12556;55.748;13.194;2024-02-23T12:38:30;7.00;99.90
11772;DHT22;12556;55.748;13.194;2024-02-23T12:40:57;7.00;99.90
11772;DHT22;12556;55.748;13.194;2024-02-23T12:43:25;7.20;99.90
11772;DHT22;12556;55.748;13.194;2024-02-23T12:45:53;7.30;99.90
11772;DHT22;12556;55.748;13.194;2024-02-23T12:48:20;7.40;99.90
11772;DHT22;12556;55.748;13.194;2024-02-23T12:50:47;7.60;99.90
11772;DHT22;12556;55.748;13.194;2024-02-23T12:53:30;7.70;99.90
11772;DHT22;12556;55.748;13.194;2024-02-23T12:55:58;8.00;99.90
11772;DHT22;12556;55.748;13.194;2024-02-23T12:58:26;8.20;99.90
11772;DHT22;12556;55.748;13.194;2024-02-23T13:00:53;8.40;99.90
11772;DHT22;12556;55.748;13.194;2024-02-23T13:03:21;8.60;99.90
11772;DHT22;12556;55.748;13.194;2024-02-23T13:05:48;8.80;99.90
11772;DHT22;12556;55.748;13.194;2024-02-23T13:08:15;9.00;99.90
11772;DHT22;12556;55.748;13.194;2024-02-23T13:10:41;9.00;99.90
11772;DHT22;12556;55.748;13.194;2024-02-23T13:13:08;9.10;99.90
11772;DHT22;12556;55.748;13.194;2024-02-23T13:15:37;9.10;99.90
11772;DHT22;12556;55.748;13.194;2024-02-23T13:18:04;9.50;99.90
11772;DHT22;12556;55.748;13.194;2024-02-23T13:20:31;9.10;99.90
11772;DHT22;12556;55.748;13.194;2024-02-23T13:22:58;9.10;99.90
11772;DHT22;12556;55.748;13.194;2024-02-23T13:25:25;9.10;99.90
11772;DHT22;12556;55.748;13.194;2024-02-23T13:27:52;9.10;99.90
11772;DHT22;12556;55.748;13.194;2024-02-23T13:30:19;9.20;99.90
11772;DHT22;12556;55.748;13.194;2024-02-23T13:32:47;9.10;99.90
11772;DHT22;12556;55.748;13.194;2024-02-23T13:35:14;9.00;99.90
11772;DHT22;12556;55.748;13.194;2024-02-23T13:37:42;8.90;99.90
11772;DHT22;12556;55.748;13.194;2024-02-23T13:40:10;8.80;99.90
11772;DHT22;12556;55.748;13.194;2024-02-23T13:42:37;8.70;99.90
11772;DHT22;12556;55.748;13.194;2024-02-23T13:45:06;8.60;99.90
11772;DHT22;12556;55.748;13.194;2024-02-23T13:47:34;8.50;99.90
11772;DHT22;12556;55.748;13.194;2024-02-23T13:50:03;8.40;99.90
11772;DHT22;12556;55.748;13.194;2024-02-23T13:52:30;8.40;99.90
11772;DHT22;12556;55.748;13.194;2024-02-23T13:54:57;8.40;99.90
11772;DHT22;12556;55.748;13.194;2024-02-23T13:57:24;8.40;99.90
11772;DHT22;12556;55.748;13.194;2024-02-23T13:59:51;8.30;99.90
11772;DHT22;12556;55.748;13.194;2024-02-23T14:02:24;8.70;99.90
11772;DHT22;12556;55.748;13.194;2024-02-23T14:04:52;8.40;99.90
11772;DHT22;12556;55.748;13.194;2024-02-23T14:07:20;8.20;99.90
11772;DHT22;12556;55.748;13.194;2024-02-23T14:09:47;8.20;99.90
11772;DHT22;12556;55.748;13.194;2024-02-23T14:12:14;8.20;99.90
11772;DHT22;12556;55.748;13.194;2024-02-23T14:14:41;8.20;99.90
11772;DHT22;12556;55.748;13.194;2024-02-23T14:17:08;8.10;99.90
11772;DHT22;12556;55.748;13.194;2024-02-23T14:19:35;8.10;99.90
11772;DHT22;12556;55.748;13.194;2024-02-23T14:22:02;8.10;99.90
11772;DHT22;12556;55.748;13.194;2024-02-23T14:24:30;8.00;99.90
11772;DHT22;12556;55.748;13.194;2024-02-23T14:26:57;8.00;99.90
11772;DHT22;12556;55.748;13.194;2024-02-23T14:29:24;8.00;99.90
11772;DHT22;12556;55.748;13.194;2024-02-23T14:31:51;7.90;99.90
11772;DHT22;12556;55.748;13.194;2024-02-23T14:34:17;7.90;99.90
11772;DHT22;12556;55.748;13.194;2024-02-23T14:36:45;7.90;99.90
11772;DHT22;12556;55.748;13.194;2024-02-23T14:39:12;7.80;99.90
11772;DHT22;12556;55.748;13.194;2024-02-23T14:41:41;7.90;99.90
11772;DHT22;12556;55.748;13.194;2024-02-23T14:44:08;7.90;99.90
11772;DHT22;12556;55.748;13.194;2024-02-23T14:46:35;7.90;99.90
11772;DHT22;12556;55.748;13.194;2024-02-23T14:49:02;7.90;99.90
11772;DHT22;12556;55.748;13.194;2024-02-23T14:51:29;7.90;99.90
11772;DHT22;12556;55.748;13.194;2024-02-23T14:53:56;7.90;99.90
11772;DHT22;12556;55.748;13.194;2024-02-23T14:56:23;7.80;99.90
11772;DHT22;12556;55.748;13.194;2024-02-23T14:58:51;7.80;99.90
11772;DHT22;12556;55.748;13.194;2024-02-23T15:01:18;7.80;99.90
11772;DHT22;12556;55.748;13.194;2024-02-23T15:03:45;7.80;99.90
11772;DHT22;12556;55.748;13.194;2024-02-23T15:06:13;7.80;99.90
11772;DHT22;12556;55.748;13.194;2024-02-23T15:08:40;7.80;99.90
11772;DHT22;12556;55.748;13.194;2024-02-23T15:11:07;7.70;99.90
11772;DHT22;12556;55.748;13.194;2024-02-23T15:13:34;7.70;99.90
11772;DHT22;12556;55.748;13.194;2024-02-23T15:16:03;7.70;99.90
11772;DHT22;12556;55.748;13.194;2024-02-23T15:18:30;7.60;99.90
11772;DHT22;12556;55.748;13.194;2024-02-23T15:20:57;7.60;99.90
11772;DHT22;12556;55.748;13.194;2024-02-23T15:23:24;7.50;99.90
11772;DHT22;12556;55.748;13.194;2024-02-23T15:25:50;7.50;99.90
11772;DHT22;12556;55.748;13.194;2024-02-23T15:28:19;7.50;99.90
11772;DHT22;12556;55.748;13.194;2024-02-23T15:30:48;7.40;99.90
11772;DHT22;12556;55.748;13.194;2024-02-23T15:33:17;7.40;99.90